createdAt,value
2024-01-28T00:01:19.612Z,102154.84
2024-01-28T00:04:22.055Z,102158.56
2024-01-28T00:07:24.152Z,102162.66
2024-01-28T00:10:26.583Z,102162.22
2024-01-28T00:13:29.777Z,102161.78
2024-01-28T00:16:32.146Z,102175.00
2024-01-28T00:19:34.638Z,102166.78
2024-01-28T00:22:36.902Z,102170.19
2024-01-28T00:25:39.001Z,102171.75
2024-01-28T00:28:41.278Z,102177.25
2024-01-28T00:31:43.443Z,102164.91
2024-01-28T00:34:48.986Z,102162.34
2024-01-28T00:37:56.332Z,102173.59
2024-01-28T00:41:01.575Z,102177.25
2024-01-28T00:44:03.758Z,102174.44
2024-01-28T00:47:06.105Z,102179.09
2024-01-28T00:50:08.686Z,102176.28
2024-01-28T00:53:11.088Z,102178.41
2024-01-28T00:56:17.800Z,102178.56
2024-01-28T00:59:20.907Z,102168.91
2024-01-28T01:02:23.214Z,102177.53
2024-01-28T01:05:25.423Z,102165.75
2024-01-28T01:08:27.713Z,102190.06
2024-01-28T01:11:29.854Z,102181.50
2024-01-28T01:14:36.806Z,102182.06
2024-01-28T01:17:39.226Z,102184.34
2024-01-28T01:20:41.441Z,102186.75
2024-01-28T01:23:43.611Z,102188.75
2024-01-28T01:26:45.858Z,102192.88
2024-01-28T01:29:48.020Z,102179.97
2024-01-28T01:32:50.208Z,102187.06
2024-01-28T01:35:52.723Z,102194.03
2024-01-28T01:38:54.933Z,102197.13
2024-01-28T01:41:57.936Z,102192.28
2024-01-28T01:45:00.252Z,102193.75
2024-01-28T01:48:02.663Z,102197.41
2024-01-28T01:51:08.100Z,102196.41
2024-01-28T01:54:10.655Z,102199.97
2024-01-28T01:57:13.644Z,102203.50
2024-01-28T02:00:16.841Z,102194.13
2024-01-28T02:03:19.259Z,102201.91
2024-01-28T02:06:21.542Z,102204.03
2024-01-28T02:09:24.175Z,102217.25
2024-01-28T02:12:26.805Z,102220.66
2024-01-28T02:15:29.179Z,102226.78
2024-01-28T02:18:31.634Z,102217.25
2024-01-28T02:21:33.968Z,102227.75
2024-01-28T02:24:36.131Z,102239.41
2024-01-28T02:27:40.725Z,102235.13
2024-01-28T02:30:43.389Z,102218.91
2024-01-28T02:33:45.813Z,102213.94
2024-01-28T02:36:48.139Z,102236.13
2024-01-28T02:39:50.338Z,102246.03
2024-01-28T02:42:52.603Z,102244.59
2024-01-28T02:45:54.880Z,102249.16
2024-01-28T02:48:57.766Z,102238.00
2024-01-28T02:52:00.019Z,102251.41
2024-01-28T02:55:02.146Z,102257.66
2024-01-28T02:58:04.705Z,102260.09
2024-01-28T03:01:07.263Z,102265.47
2024-01-28T03:04:09.595Z,102260.16
2024-01-28T03:07:11.757Z,102271.25
2024-01-28T03:10:14.037Z,102270.72
2024-01-28T03:13:16.344Z,102279.41
2024-01-28T03:16:19.006Z,102283.81
2024-01-28T03:19:21.309Z,102276.66
2024-01-28T03:22:23.604Z,102283.03
2024-01-28T03:25:25.665Z,102289.53
2024-01-28T03:28:27.785Z,102300.94
2024-01-28T03:31:30.029Z,102303.03
2024-01-28T03:34:32.466Z,102287.44
2024-01-28T03:37:34.737Z,102304.50
2024-01-28T03:40:36.828Z,102313.56
2024-01-28T03:43:39.860Z,102306.31
2024-01-28T03:46:42.093Z,102311.13
2024-01-28T03:49:44.281Z,102315.00
2024-01-28T03:52:47.145Z,102310.41
2024-01-28T03:55:49.234Z,102317.66
2024-01-28T03:58:51.482Z,102316.13
2024-01-28T04:01:53.691Z,102329.47
2024-01-28T04:04:55.894Z,102332.69
2024-01-28T04:07:58.111Z,102337.50
2024-01-28T04:11:00.249Z,102343.47
2024-01-28T04:14:02.338Z,102351.22
2024-01-28T04:17:04.617Z,102352.97
2024-01-28T04:20:07.930Z,102364.59
2024-01-28T04:23:10.049Z,102361.56
2024-01-28T04:26:12.375Z,102357.38
2024-01-28T04:29:14.711Z,102358.38
2024-01-28T04:32:16.844Z,102362.63
2024-01-28T04:35:19.068Z,102368.72
2024-01-28T04:38:21.261Z,102376.47
2024-01-28T04:41:23.442Z,102377.25
2024-01-28T04:44:25.613Z,102385.06
2024-01-28T04:47:27.876Z,102389.81
2024-01-28T04:50:30.014Z,102386.94
2024-01-28T04:53:32.190Z,102388.81
2024-01-28T04:56:34.356Z,102396.44
2024-01-28T04:59:36.647Z,102401.38
2024-01-28T05:02:39.782Z,102415.41
2024-01-28T05:05:42.657Z,102404.69
2024-01-28T05:08:44.859Z,102394.38
2024-01-28T05:11:47.098Z,102407.16
2024-01-28T05:14:49.380Z,102412.13
2024-01-28T05:17:51.681Z,102410.16
2024-01-28T05:20:53.816Z,102421.97
2024-01-28T05:23:56.060Z,102430.06
2024-01-28T05:26:58.406Z,102420.88
2024-01-28T05:30:00.568Z,102431.66
2024-01-28T05:33:02.776Z,102434.31
2024-01-28T05:36:14.860Z,102436.41
2024-01-28T05:39:18.313Z,102454.50
2024-01-28T05:42:20.557Z,102456.94
2024-01-28T05:45:22.738Z,102460.31
2024-01-28T05:48:25.011Z,102453.63
2024-01-28T05:51:28.534Z,102473.16
2024-01-28T05:54:31.937Z,102466.59
2024-01-28T05:57:34.505Z,102470.66
2024-01-28T06:00:36.744Z,102501.66
2024-01-28T06:03:39.077Z,102507.34
2024-01-28T06:06:43.804Z,102513.94
2024-01-28T06:09:46.288Z,102512.34
2024-01-28T06:12:48.547Z,102515.72
2024-01-28T06:15:53.127Z,102498.56
2024-01-28T06:18:57.769Z,102527.34
2024-01-28T06:22:03.712Z,102532.84
2024-01-28T06:25:08.641Z,102528.28
2024-01-28T06:28:10.904Z,102530.00
2024-01-28T06:31:14.621Z,102530.84
2024-01-28T06:34:17.235Z,102513.56
2024-01-28T06:37:19.834Z,102520.25
2024-01-28T06:40:22.028Z,102526.91
2024-01-28T06:43:26.871Z,102536.22
2024-01-28T06:46:29.006Z,102541.63
2024-01-28T06:49:31.363Z,102551.56
2024-01-28T06:52:33.565Z,102564.00
2024-01-28T06:55:36.153Z,102570.09
2024-01-28T06:58:38.385Z,102571.94
2024-01-28T07:01:41.051Z,102578.75
2024-01-28T07:04:43.323Z,102570.31
2024-01-28T07:07:46.188Z,102582.41
2024-01-28T07:10:48.514Z,102579.78
2024-01-28T07:13:50.754Z,102567.38
2024-01-28T07:16:53.067Z,102588.47
2024-01-28T07:19:55.440Z,102585.72
2024-01-28T07:22:57.772Z,102584.06
2024-01-28T07:25:59.863Z,102581.13
2024-01-28T07:29:02.020Z,102577.38
2024-01-28T07:32:05.223Z,102578.53
2024-01-28T07:35:08.313Z,102581.94
2024-01-28T07:38:10.666Z,102592.94
2024-01-28T07:41:15.976Z,102585.19
2024-01-28T07:44:18.122Z,102592.19
2024-01-28T07:47:20.565Z,102603.38
2024-01-28T07:50:22.888Z,102618.31
2024-01-28T07:53:24.952Z,102619.72
2024-01-28T07:56:27.860Z,102626.97
2024-01-28T07:59:30.060Z,102630.09
2024-01-28T08:02:32.681Z,102627.69
2024-01-28T08:05:34.910Z,102640.38
2024-01-28T08:08:37.091Z,102642.03
2024-01-28T08:11:39.758Z,102645.19
2024-01-28T08:14:42.048Z,102641.06
2024-01-28T08:17:46.061Z,102642.75
2024-01-28T08:20:48.285Z,102645.88
2024-01-28T08:23:50.279Z,102648.97
2024-01-28T08:26:52.493Z,102663.84
2024-01-28T08:29:54.650Z,102657.16
2024-01-28T08:32:56.837Z,102668.09
2024-01-28T08:35:59.255Z,102678.78
2024-01-28T08:39:01.879Z,102670.19
2024-01-28T08:42:04.040Z,102687.25
2024-01-28T08:45:06.589Z,102706.41
2024-01-28T08:48:11.557Z,102707.94
2024-01-28T08:51:13.948Z,102708.63
2024-01-28T08:54:16.219Z,102711.34
2024-01-28T08:57:20.120Z,102715.50
2024-01-28T09:00:22.680Z,102717.69
2024-01-28T09:03:25.167Z,102723.22
2024-01-28T09:06:27.614Z,102733.22
2024-01-28T09:09:30.267Z,102725.66
2024-01-28T09:12:32.388Z,102737.13
2024-01-28T09:15:34.603Z,102743.06
2024-01-28T09:18:36.814Z,102747.97
2024-01-28T09:21:39.004Z,102742.03
2024-01-28T09:24:41.503Z,102750.50
2024-01-28T09:27:49.508Z,102754.84
2024-01-28T09:30:52.245Z,102745.25
2024-01-28T09:33:54.582Z,102743.03
2024-01-28T09:36:57.179Z,102756.44
2024-01-28T09:40:00.412Z,102745.69
2024-01-28T09:43:41.126Z,102746.38
2024-01-28T09:49:20.515Z,102757.44
2024-01-28T09:52:22.923Z,102762.31
2024-01-28T09:55:25.012Z,102751.59
2024-01-28T09:58:27.367Z,102767.28
2024-01-28T10:01:32.383Z,102752.16
2024-01-28T10:04:36.337Z,102757.38
2024-01-28T10:08:05.720Z,102764.88
2024-01-28T10:11:10.826Z,102749.59
2024-01-28T10:14:13.994Z,102744.88
2024-01-28T10:17:16.159Z,102769.22
2024-01-28T10:20:23.859Z,102774.09
2024-01-28T10:23:26.058Z,102775.09
2024-01-28T10:26:28.202Z,102788.28
2024-01-28T10:29:30.283Z,102794.16
2024-01-28T10:32:32.497Z,102772.03
2024-01-28T10:35:34.898Z,102789.66
2024-01-28T10:38:43.861Z,102794.72
2024-01-28T10:41:51.771Z,102798.41
2024-01-28T10:44:59.784Z,102810.44
2024-01-28T10:48:11.567Z,102809.72
2024-01-28T10:51:16.386Z,102810.94
2024-01-28T10:54:18.725Z,102811.69
2024-01-28T10:57:22.754Z,102814.16
2024-01-28T11:00:26.350Z,102818.94
2024-01-28T11:03:29.107Z,102801.53
2024-01-28T11:06:31.573Z,102816.41
2024-01-28T11:09:34.134Z,102805.59
2024-01-28T11:20:15.013Z,102813.84
2024-01-28T11:23:17.950Z,102827.84
2024-01-28T11:26:20.478Z,102822.16
2024-01-28T11:29:22.673Z,102826.22
2024-01-28T11:32:35.010Z,102820.94
2024-01-28T11:35:37.547Z,102812.59
2024-01-28T11:38:44.425Z,102829.03
2024-01-28T11:41:46.779Z,102825.84
2024-01-28T11:44:49.825Z,102831.00
2024-01-28T11:47:52.640Z,102832.00
2024-01-28T11:50:54.937Z,102828.41
2024-01-28T11:53:57.096Z,102830.03
2024-01-28T11:57:01.521Z,102836.88
2024-01-28T12:00:09.520Z,102845.22
2024-01-28T12:03:11.910Z,102846.97
2024-01-28T12:06:15.423Z,102855.28
2024-01-28T12:09:17.646Z,102859.94
2024-01-28T12:12:19.867Z,102846.81
2024-01-28T12:15:22.310Z,102860.69
2024-01-28T12:18:24.755Z,102858.22
2024-01-28T12:21:29.089Z,102871.47
2024-01-28T12:24:32.723Z,102870.63
2024-01-28T12:27:34.863Z,102878.22
2024-01-28T12:30:39.060Z,102877.00
2024-01-28T12:33:41.452Z,102878.34
2024-01-28T12:36:43.946Z,102880.19
2024-01-28T12:39:46.330Z,102884.97
2024-01-28T12:42:48.715Z,102878.44
2024-01-28T12:45:52.352Z,102889.25
2024-01-28T12:48:57.288Z,102906.03
2024-01-28T12:51:59.731Z,102872.44
2024-01-28T12:55:02.627Z,102901.63
2024-01-28T13:05:15.813Z,102886.59
2024-01-28T13:08:18.268Z,102911.38
2024-01-28T13:11:20.491Z,102922.03
2024-01-28T13:14:22.708Z,102915.31
2024-01-28T13:17:26.050Z,102904.00
2024-01-28T13:20:28.417Z,102900.59
2024-01-28T13:23:30.708Z,102916.19
2024-01-28T13:26:33.211Z,102927.22
2024-01-28T13:29:39.379Z,102933.09
2024-01-28T13:32:41.776Z,102927.31
2024-01-28T13:35:44.011Z,102926.91
2024-01-28T13:38:46.326Z,102942.63
2024-01-28T13:41:48.519Z,102936.72
2024-01-28T13:44:51.533Z,102949.22
2024-01-28T13:47:53.848Z,102950.97
2024-01-28T13:50:56.269Z,102956.47
2024-01-28T13:53:58.531Z,102961.66
2024-01-28T13:57:01.144Z,102960.97
2024-01-28T14:00:04.433Z,102953.59
2024-01-28T14:03:07.466Z,102957.16
2024-01-28T14:06:09.784Z,102961.06
2024-01-28T14:09:12.658Z,102937.28
2024-01-28T14:12:15.182Z,102965.00
2024-01-28T14:15:17.497Z,102959.66
2024-01-28T14:18:19.975Z,102965.41
2024-01-28T14:21:26.622Z,102978.94
2024-01-28T14:24:28.897Z,102972.09
2024-01-28T14:27:31.119Z,102956.16
2024-01-28T14:30:33.380Z,102982.69
2024-01-28T14:33:35.653Z,102956.63
2024-01-28T14:36:38.089Z,102984.59
2024-01-28T14:39:40.394Z,102979.06
2024-01-28T14:42:42.772Z,102992.22
2024-01-28T14:45:46.712Z,102990.38
2024-01-28T14:48:49.460Z,102994.81
2024-01-28T14:51:52.423Z,102994.41
2024-01-28T14:54:54.701Z,102999.09
2024-01-28T14:57:57.123Z,103000.94
2024-01-28T15:00:59.290Z,103008.06
2024-01-28T15:04:01.536Z,103013.81
2024-01-28T15:07:04.457Z,103014.31
2024-01-28T15:10:07.943Z,103023.03
2024-01-28T15:13:10.303Z,103013.56
2024-01-28T15:16:12.711Z,103017.63
2024-01-28T15:19:15.078Z,103012.94
2024-01-28T15:22:17.419Z,103025.13
2024-01-28T15:25:20.216Z,103023.28
2024-01-28T15:28:25.533Z,103023.16
2024-01-28T15:31:31.340Z,103031.28
2024-01-28T15:34:33.459Z,103025.94
2024-01-28T15:37:35.981Z,103027.78
2024-01-28T15:40:38.143Z,103037.88
2024-01-28T15:43:40.226Z,103034.69
2024-01-28T15:46:42.520Z,103029.50
2024-01-28T15:49:45.265Z,103040.09
2024-01-28T15:52:47.582Z,103022.88
2024-01-28T15:55:49.859Z,103040.69
2024-01-28T15:58:52.226Z,103032.31
2024-01-28T16:01:54.395Z,103037.59
2024-01-28T16:04:56.647Z,103039.56
2024-01-28T16:07:59.411Z,103044.59
2024-01-28T16:11:01.570Z,103049.84
2024-01-28T16:14:04.411Z,103046.66
2024-01-28T16:17:06.873Z,103056.50
2024-01-28T16:20:10.740Z,103054.34
2024-01-28T16:23:13.421Z,103059.47
2024-01-28T16:26:15.746Z,103078.16
2024-01-28T16:29:18.025Z,103074.50
2024-01-28T16:32:20.062Z,103087.94
2024-01-28T16:35:22.845Z,103097.38
2024-01-28T16:38:25.062Z,103095.25
2024-01-28T16:41:28.633Z,103103.53
2024-01-28T16:44:30.846Z,103106.06
2024-01-28T16:47:33.529Z,103117.34
2024-01-28T16:50:37.226Z,103118.56
2024-01-28T16:53:39.385Z,103122.84
2024-01-28T16:56:41.548Z,103113.97
2024-01-28T16:59:44.148Z,103122.88
2024-01-28T17:02:46.288Z,103131.09
2024-01-28T17:05:48.761Z,103122.25
2024-01-28T17:08:50.897Z,103145.94
2024-01-28T17:11:53.400Z,103147.03
2024-01-28T17:14:55.707Z,103141.13
2024-01-28T17:17:58.121Z,103141.47
2024-01-28T17:21:05.799Z,103159.22
2024-01-28T17:24:08.672Z,103159.22
2024-01-28T17:27:10.847Z,103149.03
2024-01-28T17:30:13.297Z,103171.91
2024-01-28T17:33:15.854Z,103169.03
2024-01-28T17:36:18.352Z,103176.28
2024-01-28T17:39:20.859Z,103186.00
2024-01-28T17:42:27.683Z,103182.88
2024-01-28T17:45:31.485Z,103175.38
2024-01-28T17:48:36.494Z,103194.16
2024-01-28T17:51:39.714Z,103194.59
2024-01-28T17:54:42.404Z,103209.38
2024-01-28T17:57:44.713Z,103204.75
2024-01-28T18:00:47.438Z,103206.69
2024-01-28T18:03:49.927Z,103202.97
2024-01-28T18:06:52.685Z,103218.47
2024-01-28T18:09:55.054Z,103215.13
2024-01-28T18:12:57.555Z,103215.56
2024-01-28T18:16:00.108Z,103216.97
2024-01-28T18:19:02.491Z,103214.06
2024-01-28T18:22:05.226Z,103219.00
2024-01-28T18:25:07.764Z,103223.63
2024-01-28T18:28:11.165Z,103230.09
2024-01-28T18:31:13.251Z,103237.56
2024-01-28T18:34:15.500Z,103236.16
2024-01-28T18:37:17.833Z,103242.53
2024-01-28T18:40:20.291Z,103245.13
2024-01-28T18:43:22.656Z,103239.63
2024-01-28T18:46:24.813Z,103244.81
2024-01-28T18:49:27.159Z,103245.13
2024-01-28T18:52:29.608Z,103249.44
2024-01-28T18:55:32.333Z,103240.91
2024-01-28T18:58:34.395Z,103236.59
2024-01-28T19:01:38.141Z,103247.09
2024-01-28T19:04:41.128Z,103228.94
2024-01-28T19:07:43.647Z,103241.31
2024-01-28T19:10:45.829Z,103249.34
2024-01-28T19:13:49.470Z,103239.59
2024-01-28T19:16:51.729Z,103238.22
2024-01-28T19:19:53.940Z,103239.94
2024-01-28T19:22:57.098Z,103234.16
2024-01-28T19:25:59.791Z,103227.63
2024-01-28T19:29:02.631Z,103230.16
2024-01-28T19:32:05.751Z,103232.06
2024-01-28T19:35:08.599Z,103225.72
2024-01-28T19:38:10.920Z,103231.44
2024-01-28T19:41:14.720Z,103199.81
2024-01-28T19:44:17.064Z,103221.78
2024-01-28T19:47:19.220Z,103220.13
2024-01-28T19:50:21.376Z,103238.53
2024-01-28T19:53:23.712Z,103233.94
2024-01-28T19:56:25.884Z,103236.75
2024-01-28T19:59:28.220Z,103226.50
2024-01-28T20:02:30.428Z,103249.81
2024-01-28T20:05:32.738Z,103254.38
2024-01-28T20:08:34.926Z,103262.69
2024-01-28T20:11:37.247Z,103256.44
2024-01-28T20:14:39.578Z,103263.97
2024-01-28T20:17:44.296Z,103261.69
2024-01-28T20:20:47.016Z,103259.69
2024-01-28T20:23:50.147Z,103262.59
2024-01-28T20:26:52.783Z,103286.22
2024-01-28T20:29:54.938Z,103279.53
2024-01-28T20:32:57.174Z,103277.56
2024-01-28T20:36:00.629Z,103284.72
2024-01-28T20:39:06.141Z,103280.38
2024-01-28T20:42:10.883Z,103290.97
2024-01-28T20:45:13.946Z,103282.56
2024-01-28T20:48:16.466Z,103287.94
2024-01-28T20:51:19.920Z,103305.53
2024-01-28T20:54:22.296Z,103298.84
2024-01-28T20:57:24.520Z,103309.09
2024-01-28T21:00:26.779Z,103298.41
2024-01-28T21:03:29.476Z,103308.44
2024-01-28T21:06:31.673Z,103299.81
2024-01-28T21:09:34.055Z,103303.00
2024-01-28T21:12:36.703Z,103315.56
2024-01-28T21:15:39.047Z,103315.69
2024-01-28T21:18:41.202Z,103325.50
2024-01-28T21:21:44.071Z,103317.72
2024-01-28T21:24:47.238Z,103334.66
2024-01-28T21:27:51.957Z,103336.38
2024-01-28T21:30:56.007Z,103341.88
2024-01-28T21:33:58.876Z,103331.84
2024-01-28T21:37:01.072Z,103327.97
2024-01-28T21:40:04.971Z,103338.31
2024-01-28T21:43:07.406Z,103346.47
2024-01-28T21:46:09.998Z,103348.81
2024-01-28T21:49:12.582Z,103355.19
2024-01-28T21:52:14.794Z,103352.16
2024-01-28T21:55:17.117Z,103343.03
2024-01-28T21:58:19.507Z,103332.53
2024-01-28T22:01:22.066Z,103337.63
2024-01-28T22:04:24.364Z,103335.88
2024-01-28T22:07:26.593Z,103330.50
2024-01-28T22:10:28.918Z,103342.91
2024-01-28T22:13:31.357Z,103335.81
2024-01-28T22:16:33.675Z,103350.44
2024-01-28T22:19:35.915Z,103346.72
2024-01-28T22:22:38.114Z,103341.25
2024-01-28T22:25:40.249Z,103344.78
2024-01-28T22:28:42.416Z,103341.91
2024-01-28T22:31:44.883Z,103339.94
2024-01-28T22:34:47.356Z,103348.34
2024-01-28T22:37:49.641Z,103350.38
2024-01-28T22:40:52.021Z,103346.81
2024-01-28T22:43:54.502Z,103338.94
2024-01-28T22:46:56.701Z,103345.19
2024-01-28T22:50:00.276Z,103351.75
2024-01-28T22:53:02.507Z,103354.63
2024-01-28T22:56:05.002Z,103352.72
2024-01-28T22:59:07.385Z,103338.75
2024-01-28T23:02:11.155Z,103332.50
2024-01-28T23:05:13.444Z,103344.19
2024-01-28T23:08:15.729Z,103348.63
2024-01-28T23:11:18.062Z,103357.34
2024-01-28T23:14:20.253Z,103352.50
2024-01-28T23:17:22.381Z,103351.56
2024-01-28T23:20:24.763Z,103356.38
2024-01-28T23:23:27.221Z,103358.53
2024-01-28T23:26:29.607Z,103363.41
2024-01-28T23:29:32.213Z,103352.94
2024-01-28T23:32:35.157Z,103351.00
2024-01-28T23:35:37.657Z,103368.88
2024-01-28T23:38:42.122Z,103349.47
2024-01-28T23:41:45.050Z,103357.69
2024-01-28T23:44:47.311Z,103364.47
2024-01-28T23:47:49.860Z,103376.75
2024-01-28T23:50:52.795Z,103378.72
2024-01-28T23:53:55.569Z,103395.38
2024-01-28T23:56:57.646Z,103383.13
2024-01-28T23:59:59.891Z,103382.00
